createdAt,value
2022-10-27T00:01:34.288Z,30.17
2022-10-27T00:03:57.076Z,30.77
2022-10-27T00:06:19.535Z,34.53
2022-10-27T00:08:42.109Z,31.58
2022-10-27T00:11:06.895Z,31.13
2022-10-27T00:13:30.234Z,31.80
2022-10-27T00:15:57.303Z,33.85
2022-10-27T00:18:19.890Z,32.47
2022-10-27T00:20:42.395Z,31.15
2022-10-27T00:23:05.188Z,33.28
2022-10-27T00:25:27.844Z,34.67
2022-10-27T00:27:50.746Z,34.13
2022-10-27T00:30:13.464Z,31.77
2022-10-27T00:32:36.134Z,33.67
2022-10-27T00:34:58.690Z,32.03
2022-10-27T00:37:21.405Z,31.33
2022-10-27T00:39:44.029Z,34.47
2022-10-27T00:42:06.719Z,30.90
2022-10-27T00:44:40.976Z,31.58
2022-10-27T00:47:09.660Z,33.85
2022-10-27T00:49:58.338Z,35.40
2022-10-27T00:52:30.689Z,30.75
2022-10-27T00:54:57.072Z,32.63
2022-10-27T00:57:19.660Z,31.95
2022-10-27T00:59:42.752Z,31.88
2022-10-27T01:02:07.278Z,32.65
2022-10-27T01:04:42.775Z,32.83
2022-10-27T01:07:05.460Z,32.37
2022-10-27T01:09:28.964Z,35.13
2022-10-27T01:11:51.558Z,31.98
2022-10-27T01:14:14.199Z,34.50
2022-10-27T01:16:49.338Z,32.05
2022-10-27T01:19:51.655Z,30.67
2022-10-27T01:22:14.162Z,34.10
2022-10-27T01:24:48.631Z,34.15
2022-10-27T01:27:40.348Z,33.67
2022-10-27T01:30:23.727Z,39.85
2022-10-27T01:32:52.468Z,35.17
2022-10-27T01:35:42.495Z,35.90
2022-10-27T01:38:26.986Z,37.25
2022-10-27T01:40:56.773Z,35.78
2022-10-27T01:43:24.720Z,36.70
2022-10-27T01:45:48.489Z,37.67
2022-10-27T01:48:12.375Z,35.95
2022-10-27T01:50:45.367Z,36.88
2022-10-27T01:53:19.810Z,37.45
2022-10-27T01:56:07.169Z,36.92
2022-10-27T01:58:53.417Z,38.27
2022-10-27T02:04:20.650Z,38.58
2022-10-27T02:06:52.967Z,38.22
2022-10-27T02:09:40.071Z,38.13
2022-10-27T02:12:07.945Z,38.00
2022-10-27T02:14:30.821Z,36.33
2022-10-27T02:16:54.118Z,35.38
2022-10-27T02:19:30.332Z,36.08
2022-10-27T02:21:56.402Z,36.63
2022-10-27T02:24:19.881Z,37.40
2022-10-27T02:26:53.058Z,39.47
2022-10-27T02:29:35.471Z,39.45
2022-10-27T02:32:02.816Z,39.58
2022-10-27T02:34:27.392Z,39.03
2022-10-27T02:36:50.062Z,39.80
2022-10-27T02:39:12.639Z,40.15
2022-10-27T02:41:35.255Z,39.25
2022-10-27T02:43:57.777Z,38.97
2022-10-27T02:46:20.265Z,41.33
2022-10-27T02:48:43.045Z,40.20
2022-10-27T02:51:06.099Z,42.15
2022-10-27T02:53:28.625Z,43.65
2022-10-27T02:55:51.316Z,43.13
2022-10-27T02:58:14.187Z,46.80
2022-10-27T03:00:37.089Z,50.13
2022-10-27T03:02:59.701Z,47.38
2022-10-27T03:05:22.290Z,49.17
2022-10-27T03:07:44.996Z,51.35
2022-10-27T03:10:08.016Z,50.20
2022-10-27T03:12:30.612Z,47.03
2022-10-27T03:14:53.130Z,48.35
2022-10-27T03:17:15.756Z,50.22
2022-10-27T03:19:38.348Z,47.78
2022-10-27T03:22:00.875Z,48.40
2022-10-27T03:24:23.491Z,54.77
2022-10-27T03:26:46.414Z,54.15
2022-10-27T03:29:09.372Z,55.92
2022-10-27T03:31:31.900Z,51.20
2022-10-27T03:33:54.668Z,53.63
2022-10-27T03:36:17.161Z,49.83
2022-10-27T03:38:39.948Z,51.75
2022-10-27T03:41:02.622Z,45.25
2022-10-27T03:43:25.187Z,44.75
2022-10-27T03:45:55.072Z,42.78
2022-10-27T03:48:19.858Z,43.90
2022-10-27T03:50:49.195Z,42.88
2022-10-27T03:53:11.698Z,45.25
2022-10-27T03:55:35.732Z,42.28
2022-10-27T03:57:59.088Z,43.35
2022-10-27T04:00:22.489Z,40.80
2022-10-27T04:02:45.031Z,40.42
2022-10-27T04:05:07.886Z,43.92
2022-10-27T04:07:30.476Z,43.30
2022-10-27T04:09:53.062Z,44.15
2022-10-27T04:12:15.651Z,39.53
2022-10-27T04:14:38.174Z,41.15
2022-10-27T04:17:00.785Z,43.17
2022-10-27T04:19:23.463Z,39.83
2022-10-27T04:21:46.744Z,41.95
2022-10-27T04:24:09.380Z,44.57
2022-10-27T04:26:31.906Z,43.70
2022-10-27T04:28:54.484Z,40.65
2022-10-27T04:31:17.202Z,41.53
2022-10-27T04:33:40.979Z,44.35
2022-10-27T04:36:05.468Z,40.07
2022-10-27T04:38:28.609Z,44.40
2022-10-27T04:40:51.702Z,45.13
2022-10-27T04:43:14.352Z,44.75
2022-10-27T04:45:37.006Z,43.80
2022-10-27T04:47:59.876Z,43.57
2022-10-27T04:50:22.512Z,44.00
2022-10-27T04:52:58.323Z,46.63
2022-10-27T04:55:20.903Z,45.83
2022-10-27T04:57:43.416Z,46.17
2022-10-27T05:00:06.716Z,44.37
2022-10-27T05:02:29.946Z,44.45
2022-10-27T05:04:54.642Z,43.08
2022-10-27T05:07:17.130Z,44.40
2022-10-27T05:09:39.695Z,45.63
2022-10-27T05:12:02.227Z,47.10
2022-10-27T05:14:25.116Z,61.20
2022-10-27T05:16:47.776Z,51.80
2022-10-27T05:19:10.523Z,50.10
2022-10-27T05:21:33.156Z,51.97
2022-10-27T05:23:55.679Z,51.53
2022-10-27T05:26:18.292Z,49.78
2022-10-27T05:28:44.167Z,51.45
2022-10-27T05:31:06.711Z,51.85
2022-10-27T05:33:29.593Z,49.78
2022-10-27T05:35:52.327Z,51.03
2022-10-27T05:38:15.243Z,49.35
2022-10-27T05:40:37.971Z,49.83
2022-10-27T05:43:02.531Z,45.10
2022-10-27T05:45:25.354Z,45.97
2022-10-27T05:47:48.192Z,51.33
2022-10-27T05:50:10.813Z,47.60
2022-10-27T05:52:33.420Z,44.28
2022-10-27T05:54:56.092Z,46.95
2022-10-27T05:57:18.701Z,43.58
2022-10-27T05:59:41.287Z,45.83
2022-10-27T06:02:04.140Z,48.88
2022-10-27T06:04:26.994Z,50.97
2022-10-27T06:06:49.584Z,47.67
2022-10-27T06:09:12.213Z,41.72
2022-10-27T06:11:34.813Z,43.50
2022-10-27T06:13:57.387Z,44.08
2022-10-27T06:16:25.605Z,37.53
2022-10-27T06:18:48.201Z,39.55
2022-10-27T06:21:10.901Z,42.75
2022-10-27T06:23:33.599Z,40.97
2022-10-27T06:25:56.909Z,41.40
2022-10-27T06:28:22.159Z,42.88
2022-10-27T06:30:45.291Z,43.20
2022-10-27T06:33:07.900Z,40.85
2022-10-27T06:35:30.435Z,45.43
2022-10-27T06:37:53.014Z,44.00
2022-10-27T06:40:18.370Z,43.25
2022-10-27T06:43:01.783Z,45.72
2022-10-27T06:45:24.332Z,43.80
2022-10-27T06:47:56.257Z,41.17
2022-10-27T06:50:18.875Z,54.40
2022-10-27T06:52:41.522Z,39.20
2022-10-27T06:55:05.506Z,42.78
2022-10-27T06:57:28.177Z,45.22
2022-10-27T06:59:50.880Z,43.07
2022-10-27T07:02:16.877Z,43.83
2022-10-27T07:04:39.643Z,44.70
2022-10-27T07:07:02.302Z,44.42
2022-10-27T07:09:29.840Z,42.15
2022-10-27T07:11:54.223Z,36.97
2022-10-27T07:14:17.578Z,41.20
2022-10-27T07:16:41.363Z,39.67
2022-10-27T07:19:03.950Z,39.75
2022-10-27T07:21:28.022Z,39.38
2022-10-27T07:23:50.742Z,38.93
2022-10-27T07:26:13.352Z,34.53
2022-10-27T07:28:36.340Z,39.88
2022-10-27T07:30:59.296Z,38.17
2022-10-27T07:33:22.511Z,36.80
2022-10-27T07:35:50.241Z,41.33
2022-10-27T07:38:13.081Z,35.55
2022-10-27T07:40:36.250Z,35.97
2022-10-27T07:43:05.049Z,36.67
2022-10-27T07:45:30.856Z,36.38
2022-10-27T07:47:56.298Z,33.20
2022-10-27T07:50:24.210Z,38.00
2022-10-27T07:52:52.326Z,36.92
2022-10-27T07:55:16.565Z,37.72
2022-10-27T07:57:39.268Z,37.88
2022-10-27T08:00:03.190Z,43.03
2022-10-27T08:02:34.911Z,39.08
2022-10-27T08:04:57.795Z,41.60
2022-10-27T08:07:20.353Z,41.45
2022-10-27T08:09:44.231Z,43.92
2022-10-27T08:12:07.703Z,44.03
2022-10-27T08:14:30.197Z,42.42
2022-10-27T08:16:52.771Z,43.40
2022-10-27T08:19:16.856Z,47.05
2022-10-27T08:21:39.346Z,44.53
2022-10-27T08:24:02.161Z,47.10
2022-10-27T08:26:24.843Z,41.20
2022-10-27T08:28:48.956Z,42.83
2022-10-27T08:31:11.450Z,43.28
2022-10-27T08:33:34.085Z,44.67
2022-10-27T08:35:56.662Z,44.37
2022-10-27T08:38:20.032Z,47.03
2022-10-27T08:40:42.828Z,49.08
2022-10-27T08:43:37.755Z,43.95
2022-10-27T08:46:25.516Z,46.67
2022-10-27T08:48:49.572Z,42.00
2022-10-27T08:51:17.208Z,46.10
2022-10-27T08:53:41.687Z,41.63
2022-10-27T08:56:12.109Z,41.33
2022-10-27T08:58:38.066Z,42.38
2022-10-27T09:01:23.644Z,42.83
2022-10-27T09:04:11.386Z,46.13
2022-10-27T09:06:49.655Z,48.58
2022-10-27T09:09:17.195Z,49.47
2022-10-27T09:12:06.666Z,45.75
2022-10-27T09:14:47.733Z,42.77
2022-10-27T09:17:13.332Z,47.80
2022-10-27T09:19:45.125Z,46.55
2022-10-27T09:22:19.658Z,46.38
2022-10-27T09:24:42.300Z,42.83
2022-10-27T09:27:05.707Z,41.13
2022-10-27T09:29:36.331Z,43.97
2022-10-27T09:32:13.351Z,41.55
2022-10-27T09:35:17.782Z,45.55
2022-10-27T09:37:43.643Z,42.20
2022-10-27T09:40:13.026Z,44.23
2022-10-27T09:42:35.998Z,43.15
2022-10-27T09:45:01.591Z,42.45
2022-10-27T09:49:57.642Z,45.50
2022-10-27T09:52:28.773Z,46.73
2022-10-27T09:54:55.532Z,43.38
2022-10-27T09:57:19.810Z,43.78
2022-10-27T09:59:42.982Z,43.78
2022-10-27T10:02:23.659Z,49.78
2022-10-27T10:04:47.527Z,42.10
2022-10-27T10:07:30.367Z,40.08
2022-10-27T10:10:23.371Z,41.70
2022-10-27T10:13:09.680Z,43.25
2022-10-27T10:15:37.679Z,42.38
2022-10-27T10:18:02.652Z,42.00
2022-10-27T10:23:24.299Z,45.90
2022-10-27T10:25:49.504Z,44.60
2022-10-27T10:28:30.605Z,53.13
2022-10-27T10:30:57.755Z,44.77
2022-10-27T10:33:24.614Z,43.78
2022-10-27T10:35:49.249Z,40.83
2022-10-27T10:38:23.870Z,45.20
2022-10-27T10:40:59.127Z,42.58
2022-10-27T10:43:22.023Z,45.97
2022-10-27T10:45:53.022Z,41.63
2022-10-27T10:48:15.614Z,40.45
2022-10-27T10:50:57.245Z,43.25
2022-10-27T10:53:42.707Z,42.05
2022-10-27T10:56:20.379Z,45.33
2022-10-27T10:58:43.467Z,45.92
2022-10-27T11:01:07.956Z,40.88
2022-10-27T11:03:36.683Z,43.13
2022-10-27T11:06:02.333Z,44.08
2022-10-27T11:08:33.610Z,43.20
2022-10-27T11:10:58.877Z,42.55
2022-10-27T11:13:31.916Z,41.33
2022-10-27T11:16:00.156Z,42.50
2022-10-27T11:18:30.859Z,40.78
2022-10-27T11:20:59.487Z,41.83
2022-10-27T11:23:29.557Z,39.25
2022-10-27T11:25:53.394Z,44.45
2022-10-27T11:28:31.453Z,42.40
2022-10-27T11:31:09.501Z,43.13
2022-10-27T11:33:54.042Z,41.63
2022-10-27T11:36:47.926Z,38.90
2022-10-27T11:39:36.534Z,40.17
2022-10-27T11:42:27.401Z,41.30
2022-10-27T11:45:06.417Z,42.67
2022-10-27T11:47:35.075Z,40.57
2022-10-27T11:49:59.990Z,45.45
2022-10-27T11:52:25.658Z,46.65
2022-10-27T11:54:48.838Z,42.10
2022-10-27T11:57:21.699Z,42.92
2022-10-27T12:00:01.420Z,43.23
2022-10-27T12:02:42.676Z,43.05
2022-10-27T12:05:21.517Z,44.00
2022-10-27T12:07:55.113Z,43.58
2022-10-27T12:10:31.850Z,42.38
2022-10-27T12:13:14.611Z,43.43
2022-10-27T12:15:57.829Z,45.90
2022-10-27T12:18:29.392Z,42.90
2022-10-27T12:21:20.930Z,44.00
2022-10-27T12:24:06.514Z,40.33
2022-10-27T12:26:45.392Z,42.43
2022-10-27T12:29:09.629Z,45.78
2022-10-27T12:31:37.138Z,44.22
2022-10-27T12:34:02.263Z,45.85
2022-10-27T12:36:48.164Z,41.65
2022-10-27T12:39:29.224Z,46.70
2022-10-27T12:42:09.940Z,50.30
2022-10-27T12:44:35.356Z,51.63
2022-10-27T12:47:26.727Z,48.08
2022-10-27T12:50:33.163Z,71.40
2022-10-27T12:53:06.334Z,65.13
2022-10-27T12:55:47.874Z,48.53
2022-10-27T12:58:23.584Z,48.42
2022-10-27T13:01:21.821Z,51.20
2022-10-27T13:04:09.014Z,50.72
2022-10-27T13:07:19.810Z,45.67
2022-10-27T13:09:57.541Z,47.63
2022-10-27T13:12:29.127Z,50.28
2022-10-27T13:15:17.643Z,51.00
2022-10-27T13:17:59.092Z,54.13
2022-10-27T13:21:01.914Z,53.73
2022-10-27T13:23:48.091Z,53.10
2022-10-27T13:26:44.408Z,58.92
2022-10-27T13:29:31.133Z,51.85
2022-10-27T13:32:18.117Z,52.47
2022-10-27T13:34:40.922Z,50.40
2022-10-27T13:37:41.299Z,50.92
2022-10-27T13:40:27.062Z,50.85
2022-10-27T13:42:54.540Z,51.85
2022-10-27T13:45:35.507Z,54.13
2022-10-27T13:48:08.430Z,53.23
2022-10-27T13:50:33.975Z,55.63
2022-10-27T13:53:16.480Z,51.55
2022-10-27T13:55:39.820Z,52.90
2022-10-27T13:58:20.945Z,54.20
2022-10-27T14:01:04.395Z,50.43
2022-10-27T14:03:32.945Z,56.47
2022-10-27T14:05:56.127Z,52.33
2022-10-27T14:08:24.704Z,53.00
2022-10-27T14:10:48.095Z,55.63
2022-10-27T14:13:40.918Z,56.07
2022-10-27T14:16:04.600Z,59.28
2022-10-27T14:18:32.505Z,54.97
2022-10-27T14:20:57.990Z,55.22
2022-10-27T14:23:21.222Z,57.08
2022-10-27T14:25:43.899Z,54.80
2022-10-27T14:28:06.461Z,51.00
2022-10-27T14:30:30.021Z,53.00
2022-10-27T14:32:52.785Z,59.33
2022-10-27T14:35:28.023Z,55.45
2022-10-27T14:37:51.948Z,54.47
2022-10-27T14:40:37.808Z,54.60
2022-10-27T14:43:00.490Z,49.85
2022-10-27T14:45:23.682Z,51.28
2022-10-27T14:48:11.091Z,53.92
2022-10-27T14:50:36.744Z,53.03
2022-10-27T14:53:00.830Z,52.13
2022-10-27T14:55:31.252Z,50.22
2022-10-27T14:57:54.588Z,50.08
2022-10-27T15:00:22.434Z,51.50
2022-10-27T15:02:45.380Z,52.23
2022-10-27T15:05:13.006Z,51.10
2022-10-27T15:07:36.496Z,51.03
2022-10-27T15:09:59.203Z,47.25
2022-10-27T15:12:28.897Z,49.88
2022-10-27T15:14:53.741Z,46.70
2022-10-27T15:17:19.959Z,49.33
2022-10-27T15:19:47.754Z,48.58
2022-10-27T15:22:10.837Z,54.40
2022-10-27T15:24:33.383Z,47.53
2022-10-27T15:26:56.486Z,51.20
2022-10-27T15:29:21.741Z,50.47
2022-10-27T15:31:45.450Z,48.15
2022-10-27T15:37:26.662Z,50.25
2022-10-27T15:39:50.261Z,45.07
2022-10-27T15:42:17.542Z,46.70
2022-10-27T15:44:40.217Z,51.05
2022-10-27T15:47:31.597Z,51.08
2022-10-27T15:49:54.380Z,51.53
2022-10-27T15:52:21.348Z,49.20
2022-10-27T15:54:54.671Z,48.13
2022-10-27T15:57:41.118Z,49.15
2022-10-27T16:00:12.757Z,51.88
2022-10-27T16:02:37.182Z,49.85
2022-10-27T16:04:59.778Z,54.30
2022-10-27T16:07:22.386Z,54.50
2022-10-27T16:09:47.170Z,52.78
2022-10-27T16:12:15.973Z,50.88
2022-10-27T16:14:38.474Z,53.92
2022-10-27T16:17:01.032Z,48.80
2022-10-27T16:19:23.888Z,52.33
2022-10-27T16:21:46.580Z,52.58
2022-10-27T16:24:16.258Z,61.03
2022-10-27T16:26:39.495Z,61.28
2022-10-27T16:29:02.035Z,49.10
2022-10-27T16:31:25.348Z,51.13
2022-10-27T16:33:48.546Z,49.88
2022-10-27T16:36:13.406Z,47.92
2022-10-27T16:38:35.950Z,45.35
2022-10-27T16:40:58.869Z,44.37
2022-10-27T16:43:29.531Z,72.13
2022-10-27T16:45:52.364Z,54.47
2022-10-27T16:48:15.088Z,42.15
2022-10-27T16:50:37.693Z,46.42
2022-10-27T16:53:00.736Z,41.37
2022-10-27T16:55:24.036Z,43.58
2022-10-27T16:57:49.641Z,45.60
2022-10-27T17:00:13.984Z,46.38
2022-10-27T17:02:37.106Z,42.90
2022-10-27T17:04:59.700Z,44.87
2022-10-27T17:07:22.454Z,44.53
2022-10-27T17:09:45.255Z,43.05
2022-10-27T17:12:07.851Z,49.00
2022-10-27T17:14:33.702Z,48.22
2022-10-27T17:16:56.373Z,48.03
2022-10-27T17:19:19.316Z,49.63
2022-10-27T17:21:42.202Z,51.00
2022-10-27T17:24:05.530Z,48.33
2022-10-27T17:26:28.205Z,51.17
2022-10-27T17:28:52.200Z,54.57
2022-10-27T17:31:19.361Z,52.33
2022-10-27T17:33:46.781Z,51.17
2022-10-27T17:36:15.935Z,52.95
2022-10-27T17:38:38.602Z,51.45
2022-10-27T17:41:02.702Z,56.40
2022-10-27T17:43:25.975Z,59.22
2022-10-27T17:46:08.197Z,56.60
2022-10-27T17:48:42.720Z,51.15
2022-10-27T17:51:15.211Z,57.92
2022-10-27T17:53:39.097Z,55.57
2022-10-27T17:56:04.065Z,50.45
2022-10-27T17:58:34.067Z,54.28
2022-10-27T18:01:06.029Z,53.38
2022-10-27T18:03:28.776Z,55.47
2022-10-27T18:05:51.693Z,52.97
2022-10-27T18:08:14.495Z,54.53
2022-10-27T18:10:37.985Z,56.75
2022-10-27T18:13:00.839Z,54.30
2022-10-27T18:15:35.350Z,54.78
2022-10-27T18:17:59.225Z,61.90
2022-10-27T18:20:22.104Z,58.95
2022-10-27T18:22:45.154Z,59.53
2022-10-27T18:25:09.079Z,60.13
2022-10-27T18:27:31.828Z,65.28
2022-10-27T18:29:54.636Z,60.17
2022-10-27T18:32:21.984Z,67.78
2022-10-27T18:34:45.259Z,77.85
2022-10-27T18:37:08.047Z,75.07
2022-10-27T18:39:30.672Z,75.88
2022-10-27T18:41:53.622Z,74.73
2022-10-27T18:44:17.554Z,68.88
2022-10-27T18:46:40.444Z,70.78
2022-10-27T18:49:04.206Z,72.97
2022-10-27T18:51:29.968Z,73.45
2022-10-27T18:53:58.052Z,75.07
2022-10-27T18:56:21.805Z,74.40
2022-10-27T18:58:46.623Z,71.85
2022-10-27T19:01:12.702Z,69.80
2022-10-27T19:03:35.913Z,65.53
2022-10-27T19:06:03.736Z,70.77
2022-10-27T19:08:26.407Z,69.85
2022-10-27T19:10:49.190Z,65.93
2022-10-27T19:13:12.075Z,75.15
2022-10-27T19:15:35.191Z,77.93
2022-10-27T19:18:01.179Z,71.27
2022-10-27T19:20:24.316Z,73.28
2022-10-27T19:22:48.271Z,71.38
2022-10-27T19:25:11.588Z,65.57
2022-10-27T19:27:34.397Z,65.13
2022-10-27T19:29:57.292Z,66.63
2022-10-27T19:32:20.132Z,68.38
2022-10-27T19:34:45.090Z,69.60
2022-10-27T19:37:10.629Z,71.65
2022-10-27T19:39:33.820Z,65.10
2022-10-27T19:41:57.814Z,71.40
2022-10-27T19:44:23.861Z,68.78
2022-10-27T19:46:46.633Z,86.38
2022-10-27T19:49:14.561Z,93.90
2022-10-27T19:51:38.375Z,92.75
2022-10-27T19:54:02.553Z,87.97
2022-10-27T19:56:27.508Z,74.40
2022-10-27T19:58:58.220Z,68.15
2022-10-27T20:01:24.217Z,58.90
2022-10-27T20:03:47.863Z,65.43
2022-10-27T20:06:11.303Z,61.10
2022-10-27T20:08:33.776Z,59.58
2022-10-27T20:10:56.746Z,57.97
2022-10-27T20:13:19.486Z,57.22
2022-10-27T20:15:42.399Z,59.25
2022-10-27T20:18:05.312Z,54.90
2022-10-27T20:20:28.366Z,55.47
2022-10-27T20:22:51.176Z,56.85
2022-10-27T20:25:15.171Z,56.70
2022-10-27T20:27:38.013Z,54.92
2022-10-27T20:30:00.764Z,53.93
2022-10-27T20:32:23.865Z,57.22
2022-10-27T20:34:46.531Z,54.20
2022-10-27T20:37:10.377Z,58.05
2022-10-27T20:39:33.077Z,52.50
2022-10-27T20:41:55.724Z,53.67
2022-10-27T20:44:26.363Z,56.65
2022-10-27T20:46:49.236Z,56.05
2022-10-27T20:49:11.943Z,60.83
2022-10-27T20:51:34.969Z,52.25
2022-10-27T20:53:58.140Z,53.77
2022-10-27T20:56:20.907Z,52.78
2022-10-27T20:58:43.473Z,56.65
2022-10-27T21:01:31.437Z,50.50
2022-10-27T21:03:55.716Z,50.90
2022-10-27T21:06:18.727Z,48.50
2022-10-27T21:08:41.288Z,46.10
2022-10-27T21:11:03.958Z,54.55
2022-10-27T21:13:26.608Z,53.85
2022-10-27T21:15:56.689Z,53.45
2022-10-27T21:18:19.300Z,53.37
2022-10-27T21:20:41.793Z,55.85
2022-10-27T21:23:04.366Z,49.45
2022-10-27T21:25:27.368Z,57.78
2022-10-27T21:27:57.520Z,50.28
2022-10-27T21:30:20.651Z,47.17
2022-10-27T21:32:43.361Z,46.45
2022-10-27T21:35:06.619Z,45.45
2022-10-27T21:37:29.290Z,47.22
2022-10-27T21:39:54.000Z,46.25
2022-10-27T21:42:17.838Z,45.53
2022-10-27T21:44:40.425Z,44.35
2022-10-27T21:47:03.082Z,45.63
2022-10-27T21:49:25.645Z,45.17
2022-10-27T21:51:52.477Z,44.78
2022-10-27T21:54:15.473Z,45.00
2022-10-27T21:56:42.357Z,42.50
2022-10-27T21:59:05.024Z,41.45
2022-10-27T22:01:28.729Z,43.97
2022-10-27T22:03:51.653Z,46.25
2022-10-27T22:06:18.744Z,46.50
2022-10-27T22:08:41.473Z,41.28
2022-10-27T22:11:10.499Z,45.38
2022-10-27T22:13:33.678Z,41.30
2022-10-27T22:15:56.243Z,43.75
2022-10-27T22:18:19.209Z,42.70
2022-10-27T22:20:41.904Z,43.22
2022-10-27T22:23:04.625Z,46.97
2022-10-27T22:25:27.231Z,41.60
2022-10-27T22:27:49.790Z,42.83
2022-10-27T22:30:12.585Z,42.47
2022-10-27T22:32:35.181Z,43.08
2022-10-27T22:34:58.601Z,45.80
2022-10-27T22:37:21.241Z,43.83
2022-10-27T22:39:44.003Z,43.47
2022-10-27T22:42:07.884Z,46.40
2022-10-27T22:44:30.395Z,40.28
2022-10-27T22:46:52.914Z,38.97
2022-10-27T22:49:15.932Z,43.22
2022-10-27T22:51:40.188Z,43.33
2022-10-27T22:54:04.393Z,43.40
2022-10-27T22:56:34.012Z,47.10
2022-10-27T22:59:01.680Z,41.58
2022-10-27T23:01:27.013Z,42.97
2022-10-27T23:03:54.859Z,41.40
2022-10-27T23:06:17.594Z,43.43
2022-10-27T23:08:40.235Z,46.90
2022-10-27T23:11:06.369Z,43.38
2022-10-27T23:13:33.887Z,40.85
2022-10-27T23:16:01.425Z,44.42
2022-10-27T23:18:25.012Z,47.73
2022-10-27T23:20:47.750Z,47.42
2022-10-27T23:23:10.388Z,44.95
2022-10-27T23:25:36.652Z,44.35
2022-10-27T23:28:01.486Z,40.90
2022-10-27T23:30:23.933Z,42.57
2022-10-27T23:32:46.446Z,45.72
2022-10-27T23:35:09.144Z,44.92
2022-10-27T23:37:31.823Z,39.80
2022-10-27T23:39:54.397Z,42.78
2022-10-27T23:42:17.005Z,42.40
2022-10-27T23:44:39.560Z,43.85
2022-10-27T23:47:02.222Z,44.00
2022-10-27T23:49:24.682Z,43.25
2022-10-27T23:51:47.295Z,38.88
2022-10-27T23:54:09.872Z,41.87
2022-10-27T23:56:32.491Z,40.67
2022-10-27T23:58:55.213Z,37.22
